createdAt,value
2019-01-02T00:02:33.478Z,7.61
2019-01-02T00:07:54.716Z,7.72
2019-01-02T00:12:41.985Z,7.18
2019-01-02T00:18:02.242Z,6.41
2019-01-02T00:22:50.382Z,6.46
2019-01-02T00:27:58.796Z,6.25
2019-01-02T00:33:19.937Z,6.36
2019-01-02T00:38:20.280Z,6.35
2019-01-02T00:43:20.697Z,6.15
2019-01-02T00:48:08.066Z,6.71
2019-01-02T00:53:15.257Z,7.12
2019-01-02T00:58:37.874Z,6.79
2019-01-02T01:03:38.022Z,6.73
2019-01-02T01:08:38.278Z,7.15
2019-01-02T01:13:38.593Z,7.32
2019-01-02T01:18:25.883Z,7.04
2019-01-02T01:23:46.015Z,7.35
2019-01-02T01:28:46.233Z,6.36
2019-01-02T01:38:37.028Z,5.47
2019-01-02T01:43:44.257Z,5.13
2019-01-02T01:48:51.608Z,4.67
2019-01-02T01:53:58.732Z,4.95
2019-01-02T01:59:06.194Z,5.63
2019-01-02T02:09:17.047Z,5.65
2019-01-02T02:14:24.466Z,5.58
2019-01-02T02:19:31.784Z,5.19
2019-01-02T02:24:39.105Z,5.33
2019-01-02T02:29:46.546Z,6.04
2019-01-02T02:34:53.798Z,5.86
2019-01-02T02:40:02.218Z,5.85
2019-01-02T02:45:22.368Z,6.19
2019-01-02T02:50:10.873Z,6.61
2019-01-02T02:55:17.953Z,6.31
2019-01-02T03:00:26.244Z,6.81
2019-01-02T03:05:34.328Z,7.59
2019-01-02T03:10:42.892Z,6.71
2019-01-02T03:16:03.180Z,6.74
2019-01-02T03:20:50.460Z,6.71
2019-01-02T03:25:58.542Z,7.08
2019-01-02T03:31:05.914Z,6.37
2019-01-02T03:36:13.342Z,6.32
2019-01-02T03:46:22.127Z,5.76
2019-01-02T03:51:43.327Z,5.88
2019-01-02T03:56:30.626Z,6.21
2019-01-02T04:01:37.844Z,6.30
2019-01-02T04:06:45.096Z,5.93
2019-01-02T04:11:52.282Z,6.28
2019-01-02T04:17:00.753Z,5.70
2019-01-02T04:22:07.914Z,6.30
2019-01-02T04:27:16.077Z,5.84
2019-01-02T04:32:36.275Z,6.18
2019-01-02T04:37:37.391Z,6.16
2019-01-02T04:42:37.435Z,6.34
2019-01-02T04:48:44.235Z,7.70
2019-01-02T04:53:32.545Z,6.91
2019-01-02T04:58:53.013Z,6.08
2019-01-02T05:03:40.282Z,6.15
2019-01-02T05:08:47.354Z,5.99
2019-01-02T05:14:08.494Z,6.07
2019-01-02T05:18:55.617Z,6.28
2019-01-02T05:29:07.394Z,6.42
2019-01-02T05:34:28.489Z,5.83
2019-01-02T05:39:16.651Z,6.24
2019-01-02T05:44:38.256Z,6.22
2019-01-02T05:49:39.273Z,6.93
2019-01-02T05:54:27.716Z,6.57
2019-01-02T05:59:35.985Z,6.86
2019-01-02T06:04:43.453Z,7.13
2019-01-02T06:09:51.477Z,6.56
2019-01-02T06:15:00.459Z,7.62
2019-01-02T06:20:07.370Z,7.09
2019-01-02T06:25:27.713Z,7.58
2019-01-02T06:30:14.995Z,7.36
2019-01-02T06:35:35.073Z,8.14
2019-01-02T06:40:23.274Z,7.46
2019-01-02T06:45:44.605Z,7.63
2019-01-02T06:50:44.601Z,7.32
2019-01-02T06:55:35.710Z,7.38
2019-01-02T07:00:33.915Z,6.85
2019-01-02T07:05:41.266Z,6.98
2019-01-02T07:10:49.319Z,7.72
2019-01-02T07:16:10.520Z,7.88
2019-01-02T07:20:59.147Z,7.49
2019-01-02T07:26:06.413Z,6.22
2019-01-02T07:31:14.572Z,6.31
2019-01-02T07:36:34.612Z,6.00
2019-01-02T07:41:22.703Z,6.97
2019-01-02T07:46:30.980Z,6.24
2019-01-02T07:51:51.139Z,6.05
2019-01-02T07:56:39.427Z,6.17
2019-01-02T08:07:04.176Z,6.76
2019-01-02T08:12:05.219Z,6.76
2019-01-02T08:17:06.220Z,6.94
2019-01-02T08:28:04.263Z,7.32
2019-01-02T08:33:25.304Z,7.09
2019-01-02T08:38:26.360Z,6.72
2019-01-02T08:48:18.565Z,6.84
2019-01-02T08:53:39.858Z,7.27
2019-01-02T08:58:27.215Z,7.34
2019-01-02T09:03:34.558Z,7.44
2019-01-02T09:08:42.697Z,7.99
2019-01-02T09:14:03.900Z,8.36
2019-01-02T09:18:51.221Z,8.14
2019-01-02T09:23:59.263Z,8.67
2019-01-02T09:29:07.667Z,8.22
2019-01-02T09:34:16.137Z,8.19
2019-01-02T09:39:23.308Z,7.91
2019-01-02T09:44:44.396Z,8.87
2019-01-02T09:49:32.683Z,9.64
2019-01-02T09:54:40.953Z,8.83
2019-01-02T09:59:48.250Z,9.35
2019-01-02T10:05:09.355Z,9.42
2019-01-02T10:09:56.900Z,9.19
2019-01-02T10:15:16.915Z,9.56
2019-01-02T10:20:05.310Z,9.75
2019-01-02T10:25:13.765Z,9.26
2019-01-02T10:30:21.161Z,10.96
2019-01-02T10:35:42.121Z,11.16
2019-01-02T10:46:39.033Z,14.93
2019-01-02T10:51:50.373Z,11.84
2019-01-02T10:56:48.670Z,11.83
2019-01-02T11:01:56.021Z,12.89
2019-01-02T11:07:16.178Z,13.90
2019-01-02T11:12:04.764Z,11.42
2019-01-02T11:17:24.757Z,12.06
2019-01-02T11:22:13.018Z,11.28
2019-01-02T11:27:20.170Z,10.76
2019-01-02T11:32:28.648Z,12.22
2019-01-02T11:37:35.899Z,11.80
2019-01-02T11:42:44.124Z,11.89
2019-01-02T11:47:51.304Z,12.36
2019-01-02T11:52:59.609Z,12.74
2019-01-02T11:58:07.700Z,12.62
2019-01-02T12:03:16.342Z,12.83
2019-01-02T12:08:23.585Z,12.78
2019-01-02T12:13:30.906Z,11.34
2019-01-02T12:18:50.963Z,11.31
2019-01-02T12:23:39.306Z,12.14
2019-01-02T12:29:00.634Z,13.41
2019-01-02T12:33:47.858Z,13.19
2019-01-02T12:38:56.147Z,12.79
2019-01-02T12:44:03.618Z,12.71
2019-01-02T12:49:10.807Z,13.07
2019-01-02T12:54:31.288Z,13.28
2019-01-02T12:59:18.449Z,14.31
2019-01-02T13:04:27.204Z,15.21
2019-01-02T13:09:35.262Z,13.70
2019-01-02T13:14:44.372Z,15.84
2019-01-02T13:19:51.598Z,17.01
2019-01-02T13:25:11.908Z,18.84
2019-01-02T13:30:00.178Z,18.91
2019-01-02T13:35:21.505Z,18.22
2019-01-02T13:40:09.723Z,15.51
2019-01-02T13:45:29.982Z,17.57
2019-01-02T13:50:17.092Z,17.62
2019-01-02T14:00:41.921Z,16.59
2019-01-02T14:05:42.243Z,17.80
2019-01-02T14:10:29.550Z,15.92
2019-01-02T14:15:36.845Z,14.01
2019-01-02T14:20:44.929Z,12.63
2019-01-02T14:25:53.270Z,10.45
2019-01-02T14:31:00.515Z,12.29
2019-01-02T14:36:08.006Z,10.06
2019-01-02T14:41:29.108Z,9.89
2019-01-02T14:46:16.337Z,9.14
2019-01-02T14:51:24.541Z,9.34
2019-01-02T14:56:31.829Z,8.74
2019-01-02T15:01:52.787Z,8.39
2019-01-02T15:06:40.981Z,9.86
2019-01-02T15:11:49.655Z,10.02
2019-01-02T15:16:56.918Z,9.53
2019-01-02T15:22:20.027Z,10.39
2019-01-02T15:27:20.206Z,11.38
2019-01-02T15:32:21.361Z,9.98
2019-01-02T15:37:21.699Z,9.66
2019-01-02T15:42:10.053Z,10.93
2019-01-02T15:47:18.197Z,12.40
2019-01-02T15:52:39.827Z,14.09
2019-01-02T15:57:28.063Z,12.77
2019-01-02T16:02:35.387Z,11.54
2019-01-02T16:07:55.739Z,12.08
2019-01-02T16:12:55.719Z,10.93
2019-01-02T16:17:57.114Z,11.44
2019-01-02T16:22:58.100Z,9.42
2019-01-02T16:27:59.170Z,8.92
2019-01-02T16:33:00.217Z,8.08
2019-01-02T16:37:48.481Z,6.48
2019-01-02T16:42:55.818Z,4.48
2019-01-02T16:53:05.746Z,4.76
2019-01-02T16:58:25.920Z,4.46
2019-01-02T17:13:20.364Z,5.05
2019-01-02T17:18:40.778Z,4.88
2019-01-02T17:23:27.957Z,4.67
2019-01-02T17:33:53.021Z,4.67
2019-01-02T17:38:53.193Z,5.04
2019-01-02T17:43:41.281Z,5.49
2019-01-02T17:48:49.728Z,5.65
2019-01-02T17:54:09.840Z,5.78
2019-01-02T17:59:11.305Z,5.55
2019-01-02T18:03:58.415Z,5.57
2019-01-02T18:09:06.778Z,5.62
2019-01-02T18:14:26.793Z,5.79
2019-01-02T18:19:15.188Z,5.87
2019-01-02T18:24:22.490Z,5.88
2019-01-02T18:29:30.026Z,5.74
2019-01-02T18:35:43.047Z,7.61
2019-01-02T18:40:50.274Z,6.23
2019-01-02T18:46:11.334Z,7.20
2019-01-02T18:51:11.487Z,6.22
2019-01-02T18:55:59.691Z,7.83
2019-01-02T19:01:07.693Z,7.06
2019-01-02T19:06:14.258Z,7.08
2019-01-02T19:11:22.414Z,7.17
2019-01-02T19:16:43.573Z,6.75
2019-01-02T19:21:30.840Z,7.89
2019-01-02T19:26:51.957Z,7.61
2019-01-02T19:31:41.087Z,7.29
2019-01-02T19:36:49.304Z,7.79
2019-01-02T19:41:57.717Z,7.46
2019-01-02T19:47:17.706Z,8.13
2019-01-02T19:52:05.999Z,8.13
2019-01-02T19:57:14.087Z,8.04
2019-01-02T20:02:23.007Z,9.91
2019-01-02T20:07:30.361Z,6.91
2019-01-02T20:12:50.663Z,7.07
2019-01-02T20:17:38.935Z,7.40
2019-01-02T20:22:58.718Z,6.63
2019-01-02T20:27:45.824Z,7.73
2019-01-02T20:33:06.992Z,7.76
2019-01-02T20:37:55.173Z,7.79
2019-01-02T20:43:15.752Z,7.07
2019-01-02T20:48:15.571Z,7.26
2019-01-02T20:53:03.815Z,7.09
2019-01-02T21:03:14.866Z,8.41
2019-01-02T21:13:24.532Z,8.13
2019-01-02T21:18:33.156Z,7.87
2019-01-02T21:23:40.803Z,7.95
2019-01-02T21:33:49.228Z,8.58
2019-01-02T21:38:57.350Z,7.65
2019-01-02T21:44:18.864Z,7.70
2019-01-02T21:49:07.387Z,8.06
2019-01-02T22:04:20.847Z,8.31
2019-01-02T22:09:40.833Z,9.03
2019-01-02T22:14:42.060Z,8.67
2019-01-02T22:19:43.026Z,8.23
2019-01-02T22:24:33.617Z,9.42
2019-01-02T22:29:53.589Z,9.30
2019-01-02T22:34:55.771Z,9.06
2019-01-02T22:39:56.859Z,9.44
2019-01-02T22:44:45.013Z,9.32
2019-01-02T22:55:10.190Z,10.01
2019-01-02T22:59:57.462Z,10.02
2019-01-02T23:05:04.846Z,9.84
2019-01-02T23:10:12.783Z,10.39
2019-01-02T23:15:21.009Z,10.48
2019-01-02T23:20:29.218Z,10.19
2019-01-02T23:25:50.345Z,10.43
2019-01-02T23:35:42.344Z,9.86
2019-01-02T23:40:49.466Z,8.62
2019-01-02T23:45:57.901Z,8.67
2019-01-02T23:51:05.147Z,9.30
2019-01-02T23:56:12.488Z,8.36
